Aviation Digital Data Service (ADDS)

Output produced by METARs form (2051 UTC 24 June 2018)
found at http://www.aviationweather.gov/adds/metars/
 
LZKZ 242030Z 35003KT 330V030 CAVOK 13/11 Q1017
TAF LZKZ 241700Z 2418/2518 25007KT CAVOK 
     PROB40 
     TEMPO 2418/2421 34010KT 9999 SHRA FEW027TCU SCT034 
     BECMG 2501/2503 02005KT
       
LZIB 242030Z 32002KT CAVOK 16/09 Q1018
TAF LZIB 241700Z 2418/2518 31006KT CAVOK 
     PROB40 
     TEMPO 2421/2501 27008KT 9999 -SHRA FEW032TCU SCT042
       
TAF LZMC 241930Z 2421/2506 31008KT CAVOK 
     TEMPO 2421/2506 -SHRA SCT035 BKN050 
     TEMPO 2500/2506 7000 RA SCT015 BKN025
       
LZPP 242030Z AUTO 32003KT 9999 FEW084/// OVC200/// 14/09 Q1017
TAF LZPP 241700Z 2418/2503 VRB02KT CAVOK 
     BECMG 2421/2423 34004KT 9999 SCT037 BKN055
       
LZSL 242030Z 00000KT 9999 FEW050 13/09 Q1017
TAF LZSL 242000Z 2421/2506 32004KT 9999 FEW048 BKN080 
     PROB40 
     TEMPO 2423/2503 VRB02KT -SHRA
       
LZTT 242030Z 31006KT 9999 SCT040 BKN056 11/07 Q1017
TAF LZTT 241700Z 2418/2518 29008KT 9999 SCT034 
     PROB30 
     TEMPO 2418/2420 27012KT SHRA FEW027TCU BKN035
       
LZZI 242030Z VRB01KT 9999 FEW040 OVC056 12/11 Q1018
TAF LZZI 242000Z 2421/2506 VRB02KT 9999 SCT040 BKN050 
     TEMPO 2421/2423 -RA BKN035 OVC042 
     PROB40 
     TEMPO 2502/2505 BKN005